Time;durP1;ratioP1;P1;durP2;ratioP2;P2;SDS_P1;SDS_P2;PMS_P1;PMS_P2;Temp;Humidity;BMP_temperature;BMP_pressure;BME280_temperature;BME280_humidity;BME280_pressure;Samples;Min_cycle;Max_cycle;Signal;HPM_P1;HPM_P2
2022/05/20 00:00:56;;;;;;;4.13;3.70;;;20.60;1.00;;;;;;6183918;28;20236;-55
2022/05/20 00:04:00;;;;;;;4.13;3.87;;;20.50;1.00;;;;;;6184896;28;20239;-55
2022/05/20 00:07:03;;;;;;;3.47;3.37;;;20.50;1.00;;;;;;6208894;28;20246;-53
2022/05/20 00:10:07;;;;;;;3.80;3.60;;;20.50;1.00;;;;;;6197743;28;20326;-54
2022/05/20 00:13:10;;;;;;;4.93;3.43;;;20.40;1.00;;;;;;6183135;28;20783;-55
2022/05/20 00:16:13;;;;;;;3.90;3.80;;;20.30;1.00;;;;;;6189735;28;20383;-55
2022/05/20 00:19:17;;;;;;;3.67;3.40;;;20.40;1.00;;;;;;6186067;28;20639;-55
2022/05/20 00:22:20;;;;;;;3.73;3.50;;;20.30;1.00;;;;;;6165428;28;20313;-55
2022/05/20 00:28:48;;;;;;;3.77;3.67;;;20.30;1.00;;;;;;6164730;28;20244;-54
2022/05/20 00:31:51;;;;;;;4.10;3.73;;;20.20;1.00;;;;;;6164008;28;20332;-56
2022/05/20 00:34:55;;;;;;;4.07;3.60;;;20.20;1.00;;;;;;6166025;28;20500;-53
2022/05/20 00:37:58;;;;;;;3.43;3.33;;;20.10;1.00;;;;;;6171012;28;20387;-55
2022/05/20 00:41:01;;;;;;;4.07;3.90;;;20.10;1.00;;;;;;6181254;28;20313;-54
2022/05/20 00:44:04;;;;;;;3.73;3.43;;;20.00;1.00;;;;;;6181075;28;20320;-55
2022/05/20 00:47:07;;;;;;;3.77;3.57;;;20.00;1.00;;;;;;6163674;28;20803;-55
2022/05/20 00:50:16;;;;;;;4.10;3.93;;;20.00;1.00;;;;;;6162761;28;20256;-55
2022/05/20 00:53:22;;;;;;;3.87;3.77;;;19.90;1.00;;;;;;6165720;28;20240;-55
2022/05/20 00:56:29;;;;;;;4.50;4.20;;;19.80;1.00;;;;;;6164318;28;20658;-54
2022/05/20 00:59:35;;;;;;;4.10;4.00;;;19.80;1.00;;;;;;6164412;28;20244;-54
2022/05/20 01:02:39;;;;;;;3.60;3.50;;;19.60;1.00;;;;;;6165154;28;20255;-54
2022/05/20 01:05:46;;;;;;;4.00;3.73;;;19.60;1.00;;;;;;6184591;28;20243;-55
2022/05/20 01:08:49;;;;;;;4.17;3.87;;;19.60;1.00;;;;;;6199772;28;20234;-54
2022/05/20 01:11:52;;;;;;;4.20;3.80;;;19.50;1.00;;;;;;6184695;28;20327;-54
2022/05/20 01:14:55;;;;;;;4.10;3.90;;;19.50;1.00;;;;;;6162871;28;20250;-55
2022/05/20 01:17:59;;;;;;;4.37;4.10;;;19.40;1.00;;;;;;6163802;28;20236;-54
2022/05/20 01:21:04;;;;;;;4.17;3.90;;;19.40;1.00;;;;;;6161950;28;20414;-54
2022/05/20 01:24:08;;;;;;;4.17;3.87;;;19.30;1.00;;;;;;6164054;28;20722;-54
2022/05/20 01:27:11;;;;;;;4.50;4.20;;;19.30;1.00;;;;;;6170891;28;20355;-54
2022/05/20 01:30:16;;;;;;;4.27;3.97;;;19.30;1.00;;;;;;6187893;28;20315;-55
2022/05/20 01:33:23;;;;;;;4.70;4.30;;;19.20;1.00;;;;;;6195519;28;20321;-54
2022/05/20 01:36:27;;;;;;;4.80;4.50;;;19.10;25.40;;;;;;6193153;28;20236;-54
2022/05/20 01:39:31;;;;;;;4.43;4.20;;;19.10;35.80;;;;;;6189243;28;20267;-55
2022/05/20 01:42:37;;;;;;;5.83;5.63;;;19.00;58.60;;;;;;6188453;28;20327;-54
2022/05/20 01:45:46;;;;;;;5.60;5.27;;;19.00;90.40;;;;;;6174630;28;20283;-55
2022/05/20 01:48:58;;;;;;;5.90;5.40;;;18.90;99.90;;;;;;6163520;28;20603;-55
2022/05/20 01:52:10;;;;;;;6.67;5.60;;;18.90;99.90;;;;;;6156710;28;20269;-55
2022/05/20 01:55:19;;;;;;;5.87;5.57;;;18.80;99.90;;;;;;6164266;28;20240;-55
2022/05/20 01:58:27;;;;;;;6.60;5.90;;;18.80;99.90;;;;;;6162878;28;20633;-55
2022/05/20 02:01:37;;;;;;;7.80;7.20;;;18.70;99.90;;;;;;6162886;28;20286;-56
2022/05/20 02:04:44;;;;;;;8.57;6.63;;;18.70;99.90;;;;;;6198089;28;20229;-53
2022/05/20 02:07:52;;;;;;;7.10;6.47;;;18.60;99.90;;;;;;6181772;28;20244;-55
2022/05/20 02:11:02;;;;;;;7.87;7.00;;;18.50;99.90;;;;;;6184572;28;20319;-55
2022/05/20 02:14:09;;;;;;;8.40;7.33;;;18.50;99.90;;;;;;6187433;28;20355;-53
2022/05/20 02:17:18;;;;;;;8.97;8.10;;;18.50;99.90;;;;;;6172162;28;20272;-55
2022/05/20 02:20:26;;;;;;;9.33;8.53;;;18.40;99.90;;;;;;6184502;28;20313;-56
2022/05/20 02:23:33;;;;;;;8.23;7.83;;;18.40;99.90;;;;;;6187433;28;20267;-53
2022/05/20 02:26:42;;;;;;;11.93;8.40;;;18.40;99.90;;;;;;6165559;28;20738;-59
2022/05/20 02:29:51;;;;;;;9.47;8.87;;;18.40;99.90;;;;;;6162284;28;20276;-54
2022/05/20 02:32:58;;;;;;;8.63;8.10;;;18.40;99.90;;;;;;6167683;28;20244;-55
2022/05/20 02:36:03;;;;;;;9.47;8.67;;;18.40;99.90;;;;;;6185108;28;20309;-53
2022/05/20 02:39:14;;;;;;;9.60;9.07;;;18.50;99.90;;;;;;6184977;28;20286;-53
2022/05/20 02:42:19;;;;;;;10.00;9.13;;;18.50;99.90;;;;;;6162179;28;20596;-55
2022/05/20 02:45:22;;;;;;;8.80;8.30;;;18.50;99.90;;;;;;6165496;28;20318;-57
2022/05/20 02:48:24;;;;;;;9.67;8.97;;;18.50;99.90;;;;;;6185468;28;20432;-55
2022/05/20 02:51:27;;;;;;;9.10;8.50;;;18.40;99.90;;;;;;6183022;28;20329;-56
2022/05/20 02:54:30;;;;;;;9.40;8.83;;;18.50;99.90;;;;;;6173422;28;20421;-55
2022/05/20 02:57:35;;;;;;;10.07;9.43;;;18.40;99.90;;;;;;6183655;28;20492;-54
2022/05/20 03:04:10;;;;;;;10.87;9.97;;;18.50;99.90;;;;;;6183285;28;20228;-55
2022/05/20 03:07:14;;;;;;;10.60;9.40;;;18.50;99.90;;;;;;6182320;28;21050;-55
2022/05/20 03:10:16;;;;;;;9.50;8.70;;;18.40;99.90;;;;;;6184276;28;20598;-55
2022/05/20 03:13:20;;;;;;;9.83;9.10;;;18.50;99.90;;;;;;6185847;28;20566;-55
2022/05/20 03:16:23;;;;;;;9.90;9.30;;;18.50;99.90;;;;;;6172932;28;20566;-54
2022/05/20 03:19:30;;;;;;;9.90;9.30;;;18.50;99.90;;;;;;6160111;28;20330;-55
2022/05/20 03:22:33;;;;;;;10.30;9.50;;;18.50;99.90;;;;;;6158737;28;20250;-54
2022/05/20 03:25:36;;;;;;;9.47;8.87;;;18.50;99.90;;;;;;6161227;28;20310;-55
2022/05/20 03:28:47;;;;;;;9.47;8.77;;;18.50;99.90;;;;;;6165030;28;20335;-55
2022/05/20 03:31:50;;;;;;;8.70;8.20;;;18.50;99.90;;;;;;6169407;28;20749;-54
2022/05/20 03:34:55;;;;;;;8.47;8.00;;;18.50;99.90;;;;;;6205811;28;20576;-54
2022/05/20 03:37:57;;;;;;;9.03;8.43;;;18.50;99.90;;;;;;6194854;28;20327;-55
2022/05/20 03:41:00;;;;;;;9.90;9.10;;;18.60;99.90;;;;;;6186121;28;20387;-55
2022/05/20 03:44:06;;;;;;;8.80;8.27;;;18.60;99.90;;;;;;6189880;28;20557;-55
2022/05/20 03:47:08;;;;;;;9.37;8.70;;;18.60;99.90;;;;;;6184342;28;20367;-55
2022/05/20 03:50:11;;;;;;;8.23;7.73;;;18.60;99.90;;;;;;6176248;28;20333;-55
2022/05/20 03:53:15;;;;;;;8.47;7.87;;;18.60;99.90;;;;;;6185323;28;20231;-55
2022/05/20 03:56:17;;;;;;;8.87;8.47;;;18.70;99.90;;;;;;6182907;28;20239;-55
2022/05/20 03:59:21;;;;;;;9.27;8.70;;;18.70;99.90;;;;;;6191465;28;20848;-54
2022/05/20 04:02:24;;;;;;;10.17;9.47;;;18.70;99.90;;;;;;6181888;28;20244;-54
2022/05/20 04:05:27;;;;;;;9.00;8.40;;;18.70;99.90;;;;;;6179492;28;20704;-56
2022/05/20 04:08:30;;;;;;;9.80;9.10;;;18.70;99.90;;;;;;6180115;28;20642;-56
2022/05/20 04:11:33;;;;;;;10.17;9.57;;;18.70;99.90;;;;;;6181524;28;20319;-55
2022/05/20 04:14:37;;;;;;;9.60;9.10;;;18.70;99.90;;;;;;6191021;28;20253;-54
2022/05/20 04:17:40;;;;;;;10.67;9.77;;;18.70;99.90;;;;;;6175492;28;20238;-54
2022/05/20 04:20:42;;;;;;;11.50;10.37;;;18.70;99.90;;;;;;6193813;28;20231;-53
2022/05/20 04:23:45;;;;;;;11.53;10.50;;;18.70;99.90;;;;;;6190639;28;20285;-55
2022/05/20 04:26:48;;;;;;;11.93;11.07;;;18.70;99.90;;;;;;6187621;28;20259;-55
2022/05/20 04:29:52;;;;;;;11.13;10.27;;;18.70;99.90;;;;;;6181977;28;20327;-54
2022/05/20 04:32:55;;;;;;;10.83;10.13;;;18.70;99.90;;;;;;6189471;28;20264;-54
2022/05/20 04:35:58;;;;;;;11.43;10.53;;;18.70;99.90;;;;;;6180565;28;20244;-56
2022/05/20 04:39:01;;;;;;;11.97;11.00;;;18.50;99.90;;;;;;6192583;28;20236;-53
2022/05/20 04:48:46;;;;;;;11.17;10.37;;;18.70;99.90;;;;;;6189309;28;20263;-55
2022/05/20 04:51:49;;;;;;;11.97;10.93;;;18.80;99.90;;;;;;6183803;28;20730;-55
2022/05/20 04:54:52;;;;;;;10.20;9.60;;;18.80;99.90;;;;;;6180880;28;20817;-54
2022/05/20 04:57:55;;;;;;;11.27;10.37;;;18.90;99.90;;;;;;6190632;28;20479;-54
2022/05/20 05:00:58;;;;;;;13.10;11.77;;;18.90;99.90;;;;;;6194679;28;20652;-55
2022/05/20 05:04:01;;;;;;;12.43;11.53;;;18.90;99.90;;;;;;6195369;28;20744;-54
2022/05/20 05:07:09;;;;;;;12.43;11.43;;;18.90;99.90;;;;;;6183797;28;20385;-55
2022/05/20 05:10:14;;;;;;;12.23;11.13;;;19.00;99.90;;;;;;6190606;28;20232;-54
2022/05/20 05:13:16;;;;;;;12.47;11.67;;;19.00;99.90;;;;;;6193908;28;20323;-55
2022/05/20 05:16:21;;;;;;;11.80;11.10;;;19.00;99.90;;;;;;6187422;28;20270;-54
2022/05/20 05:19:23;;;;;;;13.37;12.37;;;19.00;99.90;;;;;;6180746;28;20374;-54
2022/05/20 05:22:26;;;;;;;12.17;11.47;;;19.10;99.90;;;;;;6197842;28;20603;-53
2022/05/20 05:25:32;;;;;;;12.40;11.50;;;19.00;99.90;;;;;;6192810;28;20231;-54
2022/05/20 05:28:34;;;;;;;11.83;10.90;;;19.20;99.90;;;;;;6194850;28;20245;-54
2022/05/20 05:31:38;;;;;;;12.23;11.33;;;19.20;99.90;;;;;;6186617;28;20326;-53
2022/05/20 05:34:41;;;;;;;13.10;11.80;;;19.30;99.90;;;;;;6190761;28;20276;-57
2022/05/20 05:37:45;;;;;;;13.67;12.47;;;19.20;99.90;;;;;;6194806;28;20898;-54
2022/05/20 05:40:48;;;;;;;12.73;11.67;;;19.20;99.90;;;;;;6183679;28;20224;-55
2022/05/20 05:43:50;;;;;;;14.50;13.30;;;19.30;99.90;;;;;;6195224;28;20817;-54
2022/05/20 05:46:55;;;;;;;13.23;12.13;;;19.30;99.90;;;;;;6188577;28;20343;-58
2022/05/20 05:49:58;;;;;;;13.17;12.17;;;19.50;99.90;;;;;;6193388;28;20343;-60
2022/05/20 05:53:07;;;;;;;13.50;12.17;;;19.60;99.90;;;;;;6195015;28;20311;-56
2022/05/20 05:56:10;;;;;;;12.00;11.10;;;19.50;99.90;;;;;;6196623;28;20274;-53
2022/05/20 05:59:13;;;;;;;12.70;11.80;;;19.60;99.90;;;;;;6199069;28;20250;-54
2022/05/20 06:02:17;;;;;;;13.57;12.53;;;19.70;99.90;;;;;;6194110;28;20300;-54
2022/05/20 06:05:20;;;;;;;14.30;13.20;;;19.60;99.90;;;;;;6182060;28;20235;-55
2022/05/20 06:08:24;;;;;;;13.47;12.57;;;19.60;99.90;;;;;;6190437;28;20294;-55
2022/05/20 06:11:30;;;;;;;14.03;12.73;;;19.60;99.90;;;;;;6189820;28;20240;-54
2022/05/20 06:14:32;;;;;;;14.77;13.57;;;19.70;99.90;;;;;;6199287;28;20293;-54
2022/05/20 06:17:36;;;;;;;14.10;13.00;;;19.70;90.30;;;;;;6189636;28;20712;-54
2022/05/20 06:20:39;;;;;;;13.57;12.33;;;19.80;67.40;;;;;;6178908;28;20387;-54
2022/05/20 06:23:42;;;;;;;13.27;12.27;;;19.90;44.70;;;;;;6184978;28;20234;-53
2022/05/20 06:26:45;;;;;;;12.60;11.60;;;19.80;20.10;;;;;;6198476;28;20239;-54
2022/05/20 06:29:48;;;;;;;13.23;12.33;;;19.80;13.10;;;;;;6182637;28;20604;-53
2022/05/20 06:32:52;;;;;;;11.43;10.60;;;19.70;1.00;;;;;;6190197;28;20232;-54
2022/05/20 06:42:48;;;;;;;11.70;10.73;;;19.90;1.00;;;;;;6193064;28;20247;-55
2022/05/20 06:45:53;;;;;;;11.40;10.63;;;20.10;1.00;;;;;;6190049;28;20235;-55
2022/05/20 06:49:17;;;;;;;11.63;10.80;;;20.30;1.00;;;;;;6186369;28;20236;-54
2022/05/20 06:52:20;;;;;;;12.13;11.10;;;20.40;1.00;;;;;;6189638;28;20277;-55
2022/05/20 06:55:40;;;;;;;10.13;9.40;;;20.50;1.00;;;;;;6183737;28;20686;-56
2022/05/20 06:58:43;;;;;;;10.13;9.20;;;20.70;1.00;;;;;;6182719;28;20881;-53
2022/05/20 07:01:46;;;;;;;8.63;8.13;;;21.00;1.00;;;;;;6189142;28;20238;-53
2022/05/20 07:05:11;;;;;;;8.80;8.40;;;21.20;1.00;;;;;;6184299;28;20255;-54
2022/05/20 07:08:13;;;;;;;9.50;8.63;;;21.20;1.00;;;;;;6189129;28;20315;-53
2022/05/20 07:11:18;;;;;;;8.50;7.87;;;21.20;1.00;;;;;;6192569;28;20311;-53
2022/05/20 07:14:20;;;;;;;7.90;7.40;;;21.30;1.00;;;;;;6182895;28;20781;-55
2022/05/20 07:17:24;;;;;;;8.33;7.73;;;21.30;1.00;;;;;;6192878;28;20255;-55
2022/05/20 07:20:28;;;;;;;8.53;7.77;;;21.40;1.00;;;;;;6198278;28;20300;-56
2022/05/20 07:23:31;;;;;;;6.67;6.17;;;21.20;1.00;;;;;;6187458;28;20236;-55
2022/05/20 07:26:34;;;;;;;6.20;5.90;;;21.30;1.00;;;;;;6192525;28;20628;-54
2022/05/20 07:29:38;;;;;;;7.03;6.53;;;21.40;1.00;;;;;;6194403;28;20408;-55
2022/05/20 07:32:40;;;;;;;7.33;6.63;;;21.60;1.00;;;;;;6182086;28;20327;-53
2022/05/20 07:35:45;;;;;;;7.40;6.87;;;21.50;1.00;;;;;;6185557;28;20228;-55
2022/05/20 07:38:47;;;;;;;6.57;6.13;;;21.40;1.00;;;;;;6185468;28;20232;-55
2022/05/20 07:41:51;;;;;;;7.77;7.17;;;21.40;1.00;;;;;;6187862;28;20223;-53
2022/05/20 07:44:54;;;;;;;6.77;6.47;;;21.20;1.00;;;;;;6189821;28;20228;-54
2022/05/20 07:47:57;;;;;;;6.93;6.50;;;21.00;1.00;;;;;;6186380;28;20248;-55
2022/05/20 07:51:04;;;;;;;7.10;6.70;;;21.00;1.00;;;;;;6187534;28;20242;-54
2022/05/20 07:54:12;;;;;;;6.40;6.00;;;20.90;1.00;;;;;;6193050;28;20244;-54
2022/05/20 07:57:15;;;;;;;6.57;6.07;;;21.10;1.00;;;;;;6180742;28;20250;-53
2022/05/20 08:00:21;;;;;;;5.93;5.67;;;21.10;1.00;;;;;;6187850;28;20711;-55
2022/05/20 08:06:45;;;;;;;5.17;4.77;;;21.30;1.00;;;;;;6178971;28;20713;-55
2022/05/20 08:09:48;;;;;;;5.90;5.50;;;21.30;1.00;;;;;;6187662;28;20236;-53
2022/05/20 08:12:52;;;;;;;5.60;5.20;;;21.30;1.00;;;;;;6190944;28;20231;-53
2022/05/20 08:15:55;;;;;;;5.27;4.87;;;21.30;1.00;;;;;;6187486;28;20338;-56
2022/05/20 08:18:58;;;;;;;5.90;5.50;;;21.50;1.00;;;;;;6184193;28;20941;-53
2022/05/20 08:22:02;;;;;;;5.13;4.93;;;21.60;1.00;;;;;;6181927;28;20378;-53
2022/05/20 08:25:06;;;;;;;5.47;4.97;;;21.70;1.00;;;;;;6192377;28;20372;-53
2022/05/20 08:28:09;;;;;;;5.20;5.03;;;21.80;1.00;;;;;;6185565;28;20240;-54
2022/05/20 08:31:11;;;;;;;5.23;4.83;;;21.80;1.00;;;;;;6160563;28;20285;-48
2022/05/20 08:34:14;;;;;;;5.93;5.10;;;21.80;1.00;;;;;;6190957;28;20753;-54
2022/05/20 08:37:19;;;;;;;4.93;4.67;;;21.80;1.00;;;;;;6188234;28;20770;-54
2022/05/20 08:40:24;;;;;;;5.33;5.00;;;21.90;1.00;;;;;;6188484;28;20228;-56
2022/05/20 08:43:30;;;;;;;4.40;4.00;;;22.00;1.00;;;;;;6193132;28;20252;-55
2022/05/20 08:46:33;;;;;;;4.67;4.37;;;22.10;1.00;;;;;;6206041;28;20317;-54
2022/05/20 08:49:38;;;;;;;5.13;4.87;;;22.00;1.00;;;;;;6191880;28;20624;-54
2022/05/20 08:52:43;;;;;;;5.80;4.80;;;22.10;1.00;;;;;;6188466;28;20595;-56
2022/05/20 08:55:46;;;;;;;4.77;4.50;;;22.00;1.00;;;;;;6195633;28;20232;-55
2022/05/20 08:58:53;;;;;;;4.40;4.20;;;22.10;1.00;;;;;;6197761;28;20735;-55
2022/05/20 09:01:56;;;;;;;3.90;3.80;;;22.30;1.00;;;;;;6195130;28;20931;-55
2022/05/20 09:04:59;;;;;;;4.40;4.20;;;22.30;1.00;;;;;;6187537;28;20240;-55
2022/05/20 09:08:08;;;;;;;4.73;4.23;;;22.60;1.00;;;;;;6192789;28;20247;-55
2022/05/20 09:11:14;;;;;;;5.87;4.00;;;22.70;1.00;;;;;;6188633;28;20701;-55
2022/05/20 09:17:43;;;;;;;4.07;3.87;;;22.80;1.00;;;;;;6190176;28;20244;-54
2022/05/20 09:20:49;;;;;;;4.90;4.30;;;22.90;1.00;;;;;;6183314;28;20346;-53
2022/05/20 09:23:55;;;;;;;4.40;3.97;;;22.90;1.00;;;;;;6190982;28;20259;-54
2022/05/20 09:27:04;;;;;;;3.90;3.80;;;22.80;1.00;;;;;;6195425;28;20604;-54
2022/05/20 09:30:09;;;;;;;4.73;4.30;;;22.90;1.00;;;;;;6183066;28;20324;-55
2022/05/20 09:33:15;;;;;;;4.20;3.90;;;23.20;1.00;;;;;;6190153;28;20651;-53
2022/05/20 09:36:49;;;;;;;4.43;4.23;;;23.30;1.00;;;;;;6186920;28;20302;-54
2022/05/20 09:39:54;;;;;;;4.40;4.20;;;23.20;1.00;;;;;;6156160;28;20310;-54
2022/05/20 09:42:58;;;;;;;4.27;4.07;;;23.20;1.00;;;;;;6191001;28;20243;-54
2022/05/20 09:46:03;;;;;;;4.00;3.80;;;23.10;1.00;;;;;;6191134;28;20260;-54
2022/05/20 09:49:14;;;;;;;4.07;3.70;;;23.20;1.00;;;;;;6195751;28;20227;-52
2022/05/20 09:52:23;;;;;;;4.00;3.90;;;23.20;1.00;;;;;;6188620;28;20811;-54
2022/05/20 09:55:29;;;;;;;4.30;4.00;;;23.10;1.00;;;;;;6185896;28;20622;-54
2022/05/20 09:58:32;;;;;;;3.80;3.70;;;23.20;1.00;;;;;;6183044;28;20248;-54
2022/05/20 10:01:37;;;;;;;3.93;3.77;;;23.20;1.00;;;;;;6197871;28;20320;-54
2022/05/20 10:04:51;;;;;;;4.50;4.20;;;23.40;1.00;;;;;;6187821;28;20348;-55
2022/05/20 10:08:01;;;;;;;4.37;3.93;;;23.50;1.00;;;;;;6180704;28;20236;-55
2022/05/20 10:11:11;;;;;;;4.10;3.87;;;23.60;1.00;;;;;;6196697;28;20322;-54
2022/05/20 10:14:18;;;;;;;4.17;4.00;;;23.70;1.00;;;;;;6188470;28;20244;-55
2022/05/20 10:17:36;;;;;;;4.37;4.17;;;23.60;1.00;;;;;;6195309;28;20239;-54
2022/05/20 10:20:46;;;;;;;4.33;4.23;;;23.80;1.00;;;;;;6184248;28;20492;-56
2022/05/20 10:24:00;;;;;;;5.43;4.13;;;23.80;1.00;;;;;;6187951;28;20240;-55
2022/05/20 10:27:11;;;;;;;4.27;4.07;;;23.80;1.00;;;;;;6184348;28;20331;-53
2022/05/20 10:33:40;;;;;;;4.20;4.10;;;23.90;1.00;;;;;;6180099;28;20355;-54
2022/05/20 10:36:55;;;;;;;4.50;4.30;;;23.90;1.00;;;;;;6174323;28;20766;-55
2022/05/20 10:40:35;;;;;;;8.17;5.93;;;23.80;1.00;;;;;;6181404;28;20244;-54
2022/05/20 10:50:58;;;;;;;9.63;8.93;;;24.00;1.00;;;;;;6159938;28;20303;-54
2022/05/20 10:54:14;;;;;;;4.77;4.57;;;24.20;1.00;;;;;;6184105;28;20263;-53
2022/05/20 10:57:35;;;;;;;9.00;8.20;;;24.30;1.00;;;;;;6209732;28;20279;-54
2022/05/20 11:00:48;;;;;;;8.30;7.80;;;24.20;1.00;;;;;;6209141;28;20251;-54
2022/05/20 11:04:21;;;;;;;6.10;5.47;;;24.20;1.00;;;;;;6178282;28;20776;-54
2022/05/20 11:07:48;;;;;;;7.87;7.27;;;24.30;1.00;;;;;;6176964;28;20293;-54
2022/05/20 11:11:22;;;;;;;14.90;13.70;;;24.20;1.00;;;;;;6185478;28;20374;-56
2022/05/20 11:14:50;;;;;;;8.40;7.70;;;24.30;1.00;;;;;;6191656;28;20319;-54
2022/05/20 11:18:15;;;;;;;5.07;4.47;;;24.50;1.00;;;;;;6193365;28;20231;-54
2022/05/20 11:21:39;;;;;;;5.03;4.63;;;24.50;1.00;;;;;;6182292;28;20234;-55
2022/05/20 11:24:59;;;;;;;4.70;4.50;;;24.50;1.00;;;;;;6188844;28;20327;-53
2022/05/20 11:28:18;;;;;;;5.07;4.60;;;24.50;1.00;;;;;;6194100;28;20259;-54
2022/05/20 11:31:39;;;;;;;4.33;4.13;;;24.30;1.00;;;;;;6176919;28;20225;-54
2022/05/20 11:35:14;;;;;;;4.30;4.00;;;24.40;1.00;;;;;;6184695;28;20232;-54
2022/05/20 11:38:41;;;;;;;3.73;3.43;;;24.40;1.00;;;;;;6190447;28;20686;-55
2022/05/20 11:41:51;;;;;;;3.70;3.50;;;24.50;1.00;;;;;;6189674;28;20665;-56
2022/05/20 11:45:09;;;;;;;4.00;3.80;;;24.80;1.00;;;;;;6189822;28;20240;-53
2022/05/20 11:48:39;;;;;;;3.90;3.60;;;24.90;1.00;;;;;;6194608;28;20236;-56
2022/05/20 11:52:08;;;;;;;3.93;3.63;;;25.10;1.00;;;;;;6179801;28;20232;-55
2022/05/20 11:55:18;;;;;;;3.77;3.50;;;25.30;1.00;;;;;;6193050;28;20303;-54
2022/05/20 11:58:26;;;;;;;3.83;3.63;;;25.30;1.00;;;;;;6195212;28;20419;-54
2022/05/20 12:01:31;;;;;;;5.17;3.93;;;25.30;1.00;;;;;;6183853;28;20409;-54
2022/05/20 12:04:36;;;;;;;3.30;3.20;;;25.50;1.00;;;;;;6191428;28;20605;-54
2022/05/20 12:07:41;;;;;;;4.10;3.80;;;25.50;1.00;;;;;;6191102;28;20259;-55
2022/05/20 12:10:49;;;;;;;3.63;3.50;;;25.60;1.00;;;;;;6199258;28;20235;-54
2022/05/20 12:14:02;;;;;;;3.77;3.30;;;25.70;1.00;;;;;;6198934;28;20224;-54
2022/05/20 12:17:06;;;;;;;5.33;3.30;;;25.90;1.00;;;;;;6188136;28;20315;-54
2022/05/20 12:24:13;;;;;;;3.57;3.30;;;25.90;1.00;;;;;;6185187;28;20270;-54
2022/05/20 12:27:38;;;;;;;3.13;3.13;;;25.80;1.00;;;;;;6183900;28;20303;-54
2022/05/20 12:30:44;;;;;;;3.37;3.27;;;25.80;1.00;;;;;;6188644;28;20694;-55
2022/05/20 12:33:53;;;;;;;3.87;3.67;;;25.90;1.00;;;;;;6192439;28;20244;-54
2022/05/20 12:36:56;;;;;;;3.53;3.43;;;25.80;1.00;;;;;;6193178;28;20455;-54
2022/05/20 12:40:00;;;;;;;3.30;3.10;;;25.80;1.00;;;;;;6191970;28;20678;-55
2022/05/20 12:43:08;;;;;;;3.10;2.90;;;25.90;1.00;;;;;;6189754;28;20733;-55
2022/05/20 12:46:19;;;;;;;4.73;2.97;;;25.90;1.00;;;;;;6164394;28;20243;-52
2022/05/20 12:49:23;;;;;;;2.83;2.80;;;26.00;1.00;;;;;;6201341;28;20239;-53
2022/05/20 12:52:28;;;;;;;2.70;2.60;;;26.10;1.00;;;;;;6187112;28;20369;-54
2022/05/20 12:55:37;;;;;;;2.90;2.73;;;26.00;1.00;;;;;;6189987;28;20240;-53
2022/05/20 12:58:39;;;;;;;2.67;2.57;;;26.00;1.00;;;;;;6182468;28;20267;-54
2022/05/20 13:01:52;;;;;;;2.37;2.37;;;26.00;1.00;;;;;;6191897;28;20710;-54
2022/05/20 13:05:02;;;;;;;2.90;2.80;;;26.10;1.00;;;;;;6161159;28;20676;-55
2022/05/20 13:08:11;;;;;;;2.57;2.57;;;26.20;1.00;;;;;;6194677;28;20313;-55
2022/05/20 13:11:17;;;;;;;2.87;2.77;;;26.10;1.00;;;;;;6192276;28;20670;-54
2022/05/20 13:14:23;;;;;;;2.60;2.60;;;26.00;1.00;;;;;;6190797;28;20321;-57
2022/05/20 13:17:26;;;;;;;3.30;2.43;;;26.00;1.00;;;;;;6192537;28;20770;-54
2022/05/20 13:20:32;;;;;;;2.30;2.30;;;26.00;1.00;;;;;;6195318;28;20239;-54
2022/05/20 13:23:37;;;;;;;3.20;2.50;;;26.00;1.00;;;;;;6191927;28;20680;-54
2022/05/20 13:26:42;;;;;;;2.60;2.50;;;26.00;1.00;;;;;;6193308;28;20319;-54
2022/05/20 13:29:47;;;;;;;3.67;2.43;;;26.20;1.00;;;;;;6189830;28;20236;-54
2022/05/20 13:32:50;;;;;;;2.70;2.60;;;26.20;1.00;;;;;;6188760;28;20264;-53
2022/05/20 13:35:55;;;;;;;3.50;3.30;;;26.50;1.00;;;;;;6196850;28;20228;-54
2022/05/20 13:39:01;;;;;;;4.90;2.23;;;26.70;1.00;;;;;;6194875;28;20725;-55
2022/05/20 13:42:09;;;;;;;2.50;2.40;;;26.70;1.00;;;;;;6191621;28;20244;-53
2022/05/20 13:45:13;;;;;;;2.40;2.30;;;26.60;1.00;;;;;;6189101;28;20651;-55
2022/05/20 13:51:45;;;;;;;2.67;2.57;;;26.40;1.00;;;;;;6182373;28;20252;-53
2022/05/20 13:54:53;;;;;;;3.23;2.67;;;26.30;1.00;;;;;;6192327;28;20251;-54
2022/05/20 13:57:58;;;;;;;2.87;2.77;;;26.30;1.00;;;;;;6187158;28;20529;-54
2022/05/20 14:01:03;;;;;;;2.93;2.70;;;26.20;1.00;;;;;;6188591;28;20295;-54
2022/05/20 14:04:05;;;;;;;2.20;2.20;;;26.10;1.00;;;;;;6190060;28;20610;-53
2022/05/20 14:07:11;;;;;;;2.37;2.37;;;26.10;1.00;;;;;;6196399;28;20903;-53
2022/05/20 14:10:20;;;;;;;2.97;2.77;;;26.20;1.00;;;;;;6192906;28;20243;-54
2022/05/20 14:13:34;;;;;;;3.17;2.87;;;26.20;1.00;;;;;;6188219;28;20240;-54
2022/05/20 14:16:42;;;;;;;2.27;2.13;;;26.40;1.00;;;;;;6190105;28;20295;-54
2022/05/20 14:19:49;;;;;;;2.30;2.30;;;26.70;1.00;;;;;;6181159;28;20359;-55
2022/05/20 14:22:52;;;;;;;2.77;2.77;;;26.80;1.00;;;;;;6178336;28;20275;-53
2022/05/20 14:25:59;;;;;;;2.70;2.50;;;26.80;1.00;;;;;;6181153;28;20607;-54
2022/05/20 14:29:08;;;;;;;2.63;2.50;;;26.80;1.00;;;;;;6186616;28;20305;-53
2022/05/20 14:32:15;;;;;;;2.97;2.53;;;26.80;1.00;;;;;;6185899;28;20514;-54
2022/05/20 14:35:20;;;;;;;4.60;2.63;;;26.40;1.00;;;;;;6182042;28;20321;-55
2022/05/20 14:38:27;;;;;;;2.50;2.30;;;26.40;1.00;;;;;;6188474;28;20239;-55
2022/05/20 14:41:31;;;;;;;2.93;2.73;;;26.50;1.00;;;;;;6161407;28;20377;-49
2022/05/20 14:44:35;;;;;;;3.23;3.03;;;26.50;1.00;;;;;;6189307;28;20236;-55
2022/05/20 14:47:41;;;;;;;3.00;2.90;;;26.40;1.00;;;;;;6178590;28;20330;-53
2022/05/20 14:50:46;;;;;;;3.03;2.93;;;26.70;1.00;;;;;;6186429;28;20379;-57
2022/05/20 14:53:49;;;;;;;3.13;2.87;;;26.70;1.00;;;;;;6194604;28;20252;-55
2022/05/20 14:56:52;;;;;;;2.63;2.50;;;26.70;1.00;;;;;;6184253;28;20282;-54
2022/05/20 15:00:24;;;;;;;3.13;3.00;;;26.80;1.00;;;;;;6185431;28;20715;-54
2022/05/20 15:03:30;;;;;;;2.87;2.80;;;26.90;1.00;;;;;;6175123;28;20238;-55
2022/05/20 15:06:37;;;;;;;3.63;2.50;;;26.90;1.00;;;;;;6185397;28;20739;-53
2022/05/20 15:09:44;;;;;;;3.80;3.63;;;27.00;1.00;;;;;;6187355;28;20236;-53
2022/05/20 15:12:48;;;;;;;3.23;2.93;;;26.90;1.00;;;;;;6185705;28;20243;-54
2022/05/20 15:15:53;;;;;;;2.90;2.90;;;27.00;1.00;;;;;;6189564;28;20319;-54
2022/05/20 15:18:56;;;;;;;2.80;2.70;;;27.00;1.00;;;;;;6189876;28;20244;-54
2022/05/20 15:21:58;;;;;;;3.30;3.00;;;26.90;1.00;;;;;;6184532;28;20236;-50
2022/05/20 15:25:01;;;;;;;3.77;3.10;;;26.70;1.00;;;;;;6193480;28;20272;-55
2022/05/20 15:28:47;;;;;;;3.47;3.30;;;26.70;1.00;;;;;;6184556;28;20314;-54
2022/05/20 15:34:54;;;;;;;3.60;3.40;;;26.60;1.00;;;;;;6186828;28;20319;-53
2022/05/20 15:37:59;;;;;;;3.37;3.30;;;26.60;1.00;;;;;;6181776;28;20236;-54
2022/05/20 15:41:02;;;;;;;3.63;3.43;;;26.60;1.00;;;;;;6184620;28;20396;-54
2022/05/20 15:44:05;;;;;;;3.33;3.23;;;26.60;1.00;;;;;;6168159;28;20372;-54
2022/05/20 15:47:11;;;;;;;3.93;3.60;;;26.60;1.00;;;;;;6181136;28;20237;-53
2022/05/20 15:50:14;;;;;;;3.57;3.47;;;26.60;1.00;;;;;;6179869;28;20367;-54
2022/05/20 15:53:17;;;;;;;3.80;3.50;;;26.60;1.00;;;;;;6184018;28;20357;-55
2022/05/20 15:56:22;;;;;;;2.73;2.73;;;26.60;1.00;;;;;;6178454;28;20390;-53
2022/05/20 15:59:30;;;;;;;2.93;2.93;;;26.60;1.00;;;;;;6159655;28;20237;-55
2022/05/20 16:02:36;;;;;;;3.37;3.23;;;26.70;1.00;;;;;;6170889;28;20241;-55
2022/05/20 16:05:41;;;;;;;4.33;3.40;;;26.70;1.00;;;;;;6184655;28;20651;-54
2022/05/20 16:08:44;;;;;;;5.57;3.70;;;26.70;1.00;;;;;;6171120;28;20366;-54
2022/05/20 16:11:48;;;;;;;3.30;3.03;;;26.70;1.00;;;;;;6183416;28;20247;-53
2022/05/20 16:14:51;;;;;;;3.83;3.53;;;26.70;1.00;;;;;;6176267;28;20335;-56
2022/05/20 16:17:55;;;;;;;3.50;3.40;;;26.60;1.00;;;;;;6158608;28;20484;-54
2022/05/20 16:21:00;;;;;;;6.73;6.33;;;26.50;1.00;;;;;;6177609;28;20240;-53
2022/05/20 16:24:06;;;;;;;3.80;3.60;;;26.40;1.00;;;;;;6181387;28;20326;-53
2022/05/20 16:27:10;;;;;;;3.47;3.37;;;26.30;1.00;;;;;;6158631;28;20257;-55
2022/05/20 16:30:14;;;;;;;2.67;2.67;;;26.20;1.00;;;;;;6159228;28;20324;-53
2022/05/20 16:33:18;;;;;;;3.83;3.60;;;26.10;1.00;;;;;;6169992;28;20959;-54
2022/05/20 16:36:22;;;;;;;3.20;3.10;;;26.00;1.00;;;;;;6190779;28;20351;-52
2022/05/20 16:39:24;;;;;;;3.60;3.40;;;25.90;1.00;;;;;;6179037;28;20359;-53
2022/05/20 16:42:27;;;;;;;3.60;3.50;;;25.90;1.00;;;;;;6170912;28;20366;-53
2022/05/20 16:45:33;;;;;;;3.53;3.43;;;25.90;1.00;;;;;;6180044;28;20379;-54
2022/05/20 16:48:45;;;;;;;3.93;3.73;;;25.80;1.00;;;;;;6181382;28;20311;-55
2022/05/20 16:51:52;;;;;;;4.30;4.10;;;25.60;1.00;;;;;;6160581;28;20388;-54
2022/05/20 16:54:55;;;;;;;4.20;4.10;;;25.60;1.00;;;;;;6163201;28;20324;-54
2022/05/20 17:04:56;;;;;;;4.33;4.13;;;25.20;1.00;;;;;;6114599;28;20245;-53
2022/05/20 17:07:59;;;;;;;5.13;4.73;;;25.10;1.00;;;;;;6088363;29;20242;-53
2022/05/20 17:11:03;;;;;;;4.37;4.13;;;24.90;1.00;;;;;;6180364;28;20736;-56